WIII/CGK METAR and TAF weather

Enter ICAO airport designator
Station Type Date Time Source
WIII METAR 2022/12/08 12:30 UTC NOAA

WIII 081230Z 15007KT 9999 FEW020 27/24 Q1008 NOSIG


Station Type Date Time Source
WIII Decoded METAR 2022/12/08 12:30 UTC NOAA

Jakarta / Soekarno-Hatta, Indonesia (WIII) 06-07S 106-39E 8M
Dec 08, 2022 - 07:30 AM EST / 2022.12.08 1230 UTC
Wind: from the SSE (150 degrees) at 8 MPH (7 KT):0
Visibility: greater than 7 mile(s):0
Sky conditions: mostly clear
Temperature: 80 F (27 C)
Dew Point: 75 F (24 C)
Relative Humidity: 83%
Pressure (altimeter): 29.77 in. Hg (1008 hPa)
ob: WIII 081230Z 15007KT 9999 FEW020 27/24 Q1008 NOSIG
cycle: 12

Station Type Date Time Source
WIII TAF 2022/12/08 12:55 UTC NOAA

TAF WIII 081100Z 0812/0918 18008KT 8000 FEW020
BECMG 0815/0817 VRB05KT 5000 HZ
BECMG 0823/0901 8000 NSW

Example: see airport list